Sunday, October 21, 2018, 6:14 AM EDT
Back to Local

KBDL, Bradley International Airport

Location: Windsor Locks, CT, United States Lat: 41.933
Local Time: 6:14 AM EDT (10:14 GMT) Lon: -72.683
Time Zone: US/Eastern Elev: 173 ft

Show me the last for .
Show Coded

Time T Td Feel RH Dir Speed Gust Alt SLP Vis Weather Sky Remarks
2018-10-21 05:51 46 40 43 79 340° 6 - 29.66 29.66 10 BKN045 OVC065 None
2018-10-21 04:51 46 39 43 76 350° 6 - 29.63 29.63 10 BKN055 OVC070 1-hr Precip Total: Trace
6-hr Precip Total (5am): 0.00"
2018-10-21 03:51 47 40 42 76 350° 12 - 29.60 29.59 10 -RA FEW055 OVC070 1-hr Precip Total: Trace
2018-10-21 02:51 48 40 45 73 350° 6 - 29.60 29.60 10 -RA OVC055 1-hr Precip Total: Trace
2018-10-21 01:51 47 44 44 89 290° 7 - 29.60 29.59 10 -RA BKN050 BKN075 OVC110 1-hr Precip Total: 0.01"
6-hr Precip Total (2am): 0.01"
6-hr Min Temp (2am): 45.0°F
6-hr Max Temp (2am): 48.9°F
2018-10-21 00:51 47 45 45 92 300° 5 - 29.60 29.59 10 -RA BKN085 OVC110 1-hr Precip Total: Trace
24-hr Min Temp (1am): 45.0°F
24-hr Max Temp (1am): 64.0°F
2018-10-20 23:51 49 44 48 83 130° 3 - 29.60 29.60 10 SCT090 BKN110 None
2018-10-20 22:51 49 43 - 79 - Calm - 29.61 29.60 10 SCT070 BKN090 OVC190 None
2018-10-20 21:51 48 44 - 86 - Calm - 29.61 29.61 10 FEW070 BKN085 BKN180 None
2018-10-20 20:51 48 44 45 86 230° 6 - 29.60 29.60 10 BKN085 BKN180 None
2018-10-20 19:51 49 44 - 83 - Calm - 29.60 29.60 10 FEW090 FEW130 6-hr Precip Total (8pm): 0.00"
6-hr Min Temp (8pm): 48.9°F
6-hr Max Temp (8pm): 64.0°F
2018-10-20 18:51 51 43 - 73 240° 3 - 29.60 29.60 10 SCT090 1-hr Precip Total: Trace
2018-10-20 17:51 55 43 - 63 270° 9 - 29.58 29.58 10 -RA FEW048 BKN060 BKN085 BKN250 1-hr Precip Total: Trace
2018-10-20 16:51 56 45 - 66 310° 7 - 29.59 29.58 10 FEW046 SCT055 BKN085 BKN250 Wind Shift: 01 min
2018-10-20 16:21 58 44 - 59 330° 14 - 29.59 - 10 SCT045 BKN055 BKN085 BKN250 Wind Shift: 01 min
2018-10-20 15:51 64 44 - 48 270° 15 - 29.58 29.58 10 FEW050 BKN075 BKN250 None
2018-10-20 14:51 62 44 - 51 270° 13 - 29.59 29.59 10 SCT050 BKN070 BKN250 None
2018-10-20 13:51 63 46 - 53 230° 9 - 29.61 29.61 10 SCT047 BKN060 6-hr Min Temp (2pm): 53.1°F
6-hr Max Temp (2pm): 64.0°F
2018-10-20 12:51 62 45 - 53 250° 10 - 29.63 29.63 10 FEW040 BKN047 BKN250 None
2018-10-20 11:51 62 47 - 57 230° 14 22 29.65 29.65 10 FEW027 SCT045 SCT250 None
2018-10-20 11:09 61 48 - 63 230° 15 25 29.66 - 10 SCT027 SCT045 SCT250 None
2018-10-20 10:51 58 48 - 69 240° 14 24 29.68 29.67 10 BKN027 BKN036 BKN045 None
2018-10-20 10:06 56 49 - 77 230° 12 - 29.69 - 10 BKN024 BKN032 BKN075 None
2018-10-20 09:51 57 49 - 74 220° 13 - 29.68 29.68 10 SCT024 BKN030 BKN075 None
2018-10-20 08:51 54 49 - 83 210° 13 - 29.70 29.70 10 SCT020 BKN055 OVC075 None
2018-10-20 07:51 53 48 - 82 210° 10 - 29.70 29.70 10 SCT018 BKN040 OVC046 6-hr Precip Total (8am): 0.00"
6-hr Min Temp (8am): 51.1°F
6-hr Max Temp (8am): 54.0°F
2018-10-20 06:51 53 47 - 79 200° 10 22 29.69 29.69 10 FEW020 BKN055 OVC085 None

Support USWX by starting your Amazon purchase here.